createdAt,value
2023-03-29T00:02:25.977Z,84.7
2023-03-29T00:05:14.056Z,84.9
2023-03-29T00:08:01.996Z,84.6
2023-03-29T00:10:49.959Z,84.9
2023-03-29T00:13:37.743Z,85.3
2023-03-29T00:16:25.723Z,85.2
2023-03-29T00:19:13.495Z,85.3
2023-03-29T00:22:01.606Z,85.8
2023-03-29T00:24:49.417Z,85.3
2023-03-29T00:27:37.326Z,85.5
2023-03-29T00:30:25.058Z,85.3
2023-03-29T00:33:12.955Z,85.3
2023-03-29T00:36:00.844Z,85.1
2023-03-29T00:38:48.722Z,85.1
2023-03-29T00:41:36.601Z,85.3
2023-03-29T00:44:24.456Z,85.1
2023-03-29T00:47:12.283Z,85.1
2023-03-29T00:50:00.215Z,85.2
2023-03-29T00:52:47.962Z,85.1
2023-03-29T00:55:35.826Z,85.3
2023-03-29T00:58:23.603Z,85.6
2023-03-29T01:01:11.388Z,85.9
2023-03-29T01:03:59.324Z,85.7
2023-03-29T01:06:47.278Z,85.6
2023-03-29T01:09:35.083Z,85.5
2023-03-29T01:12:23.034Z,85.7
2023-03-29T01:15:10.744Z,85.6
2023-03-29T01:17:58.912Z,85.7
2023-03-29T01:20:46.642Z,85.6
2023-03-29T01:23:34.427Z,85.9
2023-03-29T01:26:22.241Z,85.8
2023-03-29T01:29:10.217Z,86
2023-03-29T01:31:58.274Z,85.9
2023-03-29T01:34:46.275Z,86
2023-03-29T01:37:34.006Z,86.1
2023-03-29T01:40:22.082Z,85.9
2023-03-29T01:43:09.851Z,86.5
2023-03-29T01:45:57.826Z,86.5
2023-03-29T01:48:45.533Z,86.1
2023-03-29T01:51:33.420Z,86
2023-03-29T01:54:21.217Z,86
2023-03-29T01:57:09.238Z,86
2023-03-29T01:59:56.929Z,85.8
2023-03-29T02:02:44.954Z,85.7
2023-03-29T02:05:32.822Z,85.8
2023-03-29T02:08:20.664Z,86.2
2023-03-29T02:11:08.428Z,86.1
2023-03-29T02:13:56.435Z,86.3
2023-03-29T02:16:44.298Z,86
2023-03-29T02:19:32.237Z,85.9
2023-03-29T02:22:20.018Z,85.7
2023-03-29T02:25:07.856Z,85.6
2023-03-29T02:27:55.688Z,85.7
2023-03-29T02:30:43.575Z,85.7
2023-03-29T02:33:31.430Z,85.6
2023-03-29T02:36:19.457Z,85.6
2023-03-29T02:39:07.177Z,85.5
2023-03-29T02:41:55.164Z,85.4
2023-03-29T02:44:43.034Z,85.3
2023-03-29T02:47:31.157Z,85.2
2023-03-29T02:50:19.054Z,85.2
2023-03-29T02:53:06.950Z,85.2
2023-03-29T02:55:54.646Z,85.1
2023-03-29T02:58:42.432Z,85
2023-03-29T03:01:30.592Z,85
2023-03-29T03:04:18.626Z,85
2023-03-29T03:07:06.423Z,85
2023-03-29T03:09:54.410Z,84.8
2023-03-29T03:12:42.220Z,84.6
2023-03-29T03:15:29.950Z,84.4
2023-03-29T03:18:17.786Z,84.4
2023-03-29T03:21:05.622Z,84.6
2023-03-29T03:23:53.538Z,84.7
2023-03-29T03:26:41.539Z,84.7
2023-03-29T03:29:29.283Z,84.7
2023-03-29T03:32:17.112Z,84.7
2023-03-29T03:35:04.897Z,84.5
2023-03-29T03:37:52.674Z,84.4
2023-03-29T03:40:40.605Z,84.3
2023-03-29T03:43:28.708Z,84.2
2023-03-29T03:46:16.667Z,84.2
2023-03-29T03:49:04.576Z,84.2
2023-03-29T03:51:52.967Z,84.2
2023-03-29T03:54:40.805Z,84.2
2023-03-29T03:57:28.720Z,84.2
2023-03-29T04:00:16.571Z,84.2
2023-03-29T04:03:04.657Z,84.3
2023-03-29T04:05:52.701Z,84.5
2023-03-29T04:08:40.484Z,84.6
2023-03-29T04:11:28.830Z,84.7
2023-03-29T04:14:16.552Z,85.1
2023-03-29T04:17:04.551Z,85.3
2023-03-29T04:19:52.386Z,85.4
2023-03-29T04:22:40.183Z,85.9
2023-03-29T04:25:27.850Z,86
2023-03-29T04:28:15.634Z,86.2
2023-03-29T04:31:03.896Z,86.2
2023-03-29T04:33:52.023Z,86.2
2023-03-29T04:36:39.906Z,86.5
2023-03-29T04:39:27.697Z,86.6
2023-03-29T04:42:15.377Z,86.9
2023-03-29T04:45:03.365Z,87.6
2023-03-29T04:47:51.252Z,87.9
2023-03-29T04:50:39.248Z,88.7
2023-03-29T04:53:27.076Z,89.9
2023-03-29T04:56:14.852Z,90
2023-03-29T04:59:02.643Z,90.8
2023-03-29T05:01:50.690Z,91.3
2023-03-29T05:04:41.260Z,91.8
2023-03-29T05:07:29.212Z,92.1
2023-03-29T05:10:17.044Z,92.2
2023-03-29T05:13:04.773Z,92.6
2023-03-29T05:15:52.701Z,92.6
2023-03-29T05:18:40.675Z,92.6
2023-03-29T05:21:29.125Z,92.8
2023-03-29T05:24:17.097Z,92.9
2023-03-29T05:27:04.890Z,92.8
2023-03-29T05:29:52.810Z,93.1
2023-03-29T05:32:40.695Z,93.9
2023-03-29T05:35:28.798Z,94
2023-03-29T05:38:16.541Z,94.3
2023-03-29T05:41:04.774Z,94.2
2023-03-29T05:43:52.794Z,94.4
2023-03-29T05:46:40.786Z,94.6
2023-03-29T05:49:28.481Z,95
2023-03-29T05:52:16.299Z,95.2
2023-03-29T05:55:04.062Z,95.4
2023-03-29T05:57:52.069Z,95.6
2023-03-29T06:00:39.901Z,95.8
2023-03-29T06:03:39.240Z,95.4
2023-03-29T06:06:27.151Z,95.1
2023-03-29T06:09:14.953Z,95.1
2023-03-29T06:12:02.754Z,94.9
2023-03-29T06:14:50.751Z,94.6
2023-03-29T06:17:38.653Z,94.3
2023-03-29T06:20:26.652Z,94
2023-03-29T06:23:14.459Z,93.9
2023-03-29T06:26:02.350Z,93.6
2023-03-29T06:28:52.542Z,93.6
2023-03-29T06:31:40.778Z,93.4
2023-03-29T06:34:28.536Z,93.2
2023-03-29T06:37:16.345Z,93.2
2023-03-29T06:40:04.026Z,93
2023-03-29T06:42:51.964Z,92.7
2023-03-29T06:45:39.714Z,92.7
2023-03-29T06:48:27.702Z,92.4
2023-03-29T06:51:15.442Z,92.2
2023-03-29T06:54:06.028Z,92
2023-03-29T06:56:54.041Z,91.8
2023-03-29T06:59:41.869Z,91.6
2023-03-29T07:02:29.893Z,91.4
2023-03-29T07:05:17.864Z,91.1
2023-03-29T07:08:05.703Z,91
2023-03-29T07:10:53.659Z,90.9
2023-03-29T07:13:41.314Z,90.6
2023-03-29T07:16:29.171Z,90.4
2023-03-29T07:19:16.927Z,90.1
2023-03-29T07:22:06.341Z,90
2023-03-29T07:24:54.188Z,89.8
2023-03-29T07:27:42.140Z,89.6
2023-03-29T07:30:32.718Z,89.4
2023-03-29T07:33:21.180Z,89.2
2023-03-29T07:36:09.344Z,89.1
2023-03-29T07:38:57.426Z,89
2023-03-29T07:41:45.135Z,89
2023-03-29T07:44:32.988Z,88.9
2023-03-29T07:47:20.850Z,88.4
2023-03-29T07:50:08.690Z,87.8
2023-03-29T07:52:56.562Z,87.3
2023-03-29T07:55:47.503Z,87.4
2023-03-29T07:58:35.364Z,86.8
2023-03-29T08:01:23.441Z,86.7
2023-03-29T08:04:11.563Z,86.8
2023-03-29T08:06:59.499Z,86.8
2023-03-29T08:09:47.293Z,86.5
2023-03-29T08:12:35.256Z,86.6
2023-03-29T15:42:53.748Z,65.5
2023-03-29T15:45:41.348Z,65.6
2023-03-29T15:48:29.342Z,65.8
2023-03-29T15:51:17.031Z,66
2023-03-29T15:54:04.752Z,66.1
2023-03-29T15:56:52.687Z,66.3
2023-03-29T15:59:40.704Z,66.2
2023-03-29T16:02:28.836Z,66.5
2023-03-29T16:05:16.860Z,66.5
2023-03-29T16:08:04.525Z,66.4
2023-03-29T16:10:52.542Z,66.5
2023-03-29T16:13:40.347Z,66.1
2023-03-29T16:16:28.580Z,66.2
2023-03-29T16:19:16.437Z,66.4
2023-03-29T16:22:04.278Z,66.6
2023-03-29T16:24:52.057Z,66.7
2023-03-29T16:27:39.999Z,66.7
2023-03-29T16:30:27.772Z,66.7
2023-03-29T16:33:15.920Z,66.6
2023-03-29T16:36:04.423Z,66.8
2023-03-29T16:38:52.486Z,66.9
2023-03-29T16:41:40.286Z,67.1
2023-03-29T16:44:28.052Z,67.2
2023-03-29T16:47:15.859Z,67.4
2023-03-29T16:50:03.773Z,67.5
2023-03-29T16:52:51.576Z,67.7
2023-03-29T16:55:39.406Z,67.8
2023-03-29T16:58:27.139Z,68
2023-03-29T17:01:17.149Z,68.1
2023-03-29T17:04:05.155Z,68.2
2023-03-29T17:06:53.206Z,68.2
2023-03-29T17:09:41.089Z,68.3
2023-03-29T17:12:28.869Z,68.4
2023-03-29T17:15:16.600Z,68.4
2023-03-29T17:18:04.552Z,68.5
2023-03-29T17:20:52.294Z,68.6
2023-03-29T17:23:40.054Z,68.7
2023-03-29T17:26:27.940Z,68.7
2023-03-29T17:29:15.926Z,68.9
2023-03-29T17:32:03.707Z,69
2023-03-29T17:34:51.392Z,69.2
2023-03-29T17:37:39.108Z,69.2
2023-03-29T17:40:27.150Z,69.3
2023-03-29T17:43:14.955Z,69.5
2023-03-29T17:46:03.121Z,69.5
2023-03-29T17:48:51.036Z,69.6
2023-03-29T17:51:38.706Z,69.5
2023-03-29T17:54:26.393Z,69.6
2023-03-29T17:57:14.367Z,69.6
2023-03-29T18:00:02.144Z,69.7
2023-03-29T18:02:50.323Z,69.7
2023-03-29T18:05:38.135Z,70
2023-03-29T18:08:25.949Z,70.2
2023-03-29T18:11:13.651Z,70.4
2023-03-29T18:14:01.565Z,70.4
2023-03-29T18:16:49.500Z,70.6
2023-03-29T18:19:37.309Z,70.6
2023-03-29T18:22:25.142Z,70.9
2023-03-29T18:25:12.843Z,71.2
2023-03-29T18:28:00.763Z,71.7
2023-03-29T18:30:48.635Z,71.5
2023-03-29T18:33:36.594Z,71.8
2023-03-29T18:36:24.435Z,71.8
2023-03-29T18:39:12.430Z,71.8
2023-03-29T18:42:00.403Z,71.7
2023-03-29T18:44:48.272Z,71.8
2023-03-29T18:47:36.373Z,72.1
2023-03-29T18:50:24.262Z,72.1
2023-03-29T18:53:12.077Z,72.5
2023-03-29T18:55:59.889Z,72.4
2023-03-29T18:58:47.590Z,72.5
2023-03-29T19:01:35.650Z,72.7
2023-03-29T19:04:27.016Z,73
2023-03-29T19:07:15.009Z,73.3
2023-03-29T19:10:02.822Z,73.7
2023-03-29T19:12:50.620Z,73.4
2023-03-29T19:15:38.534Z,73.6
2023-03-29T19:18:26.491Z,73.5
2023-03-29T19:21:14.428Z,73.4
2023-03-29T19:24:02.172Z,73.5
2023-03-29T19:26:50.031Z,73.7
2023-03-29T19:29:37.736Z,73.8
2023-03-29T19:32:25.496Z,73.8
2023-03-29T19:35:13.145Z,74.1
2023-03-29T19:38:01.156Z,74.4
2023-03-29T19:40:48.862Z,74.4
2023-03-29T19:43:36.746Z,74.5
2023-03-29T19:46:24.439Z,75.2
2023-03-29T19:49:12.365Z,75.7
2023-03-29T19:52:00.064Z,76
2023-03-29T19:54:48.056Z,75.8
2023-03-29T19:57:36.035Z,75.7
2023-03-29T20:00:23.850Z,75.8
2023-03-29T20:03:11.753Z,75.9
2023-03-29T20:05:59.680Z,76
2023-03-29T20:08:47.387Z,76.3
2023-03-29T20:11:35.579Z,76.4
2023-03-29T20:14:23.331Z,76.7
2023-03-29T20:17:11.214Z,77
2023-03-29T20:19:58.850Z,77
2023-03-29T20:22:46.578Z,77.3
2023-03-29T20:25:34.397Z,77.4
2023-03-29T20:28:22.283Z,77.5
2023-03-29T20:31:09.992Z,78.1
2023-03-29T20:33:57.973Z,78.2
2023-03-29T20:36:46.022Z,78.1
2023-03-29T20:39:33.895Z,78
2023-03-29T20:42:21.782Z,78.1
2023-03-29T20:45:09.698Z,78.2
2023-03-29T20:47:58.049Z,78.7
2023-03-29T20:50:45.895Z,78.7
2023-03-29T20:53:33.716Z,78.6
2023-03-29T20:56:21.564Z,78.8
2023-03-29T20:59:09.214Z,78.8
2023-03-29T21:01:57.350Z,78.9
2023-03-29T21:04:45.223Z,79.1
2023-03-29T21:07:33.059Z,79
2023-03-29T21:10:20.794Z,79
2023-03-29T21:13:08.723Z,79.4
2023-03-29T21:15:56.454Z,79.9
2023-03-29T21:18:44.368Z,80.1
2023-03-29T21:21:32.386Z,79.8
2023-03-29T21:24:20.096Z,79.5
2023-03-29T21:27:07.815Z,79.6
2023-03-29T21:29:55.532Z,79.8
2023-03-29T21:32:43.526Z,80.1
2023-03-29T21:35:31.570Z,80.1
2023-03-29T21:38:19.447Z,80.1
2023-03-29T21:41:07.485Z,80
2023-03-29T21:43:55.211Z,80
2023-03-29T21:46:43.066Z,80.6
2023-03-29T21:49:31.135Z,80.6
2023-03-29T21:52:19.101Z,80.5
2023-03-29T21:55:06.907Z,80.9
2023-03-29T21:57:54.738Z,81
2023-03-29T22:00:42.535Z,80.7
2023-03-29T22:03:30.458Z,80.5
2023-03-29T22:06:18.298Z,80.5
2023-03-29T22:09:06.050Z,80.6
2023-03-29T22:11:53.685Z,80.5
2023-03-29T22:14:41.497Z,80.6
2023-03-29T22:17:29.348Z,80.5
2023-03-29T22:20:17.171Z,80.5
2023-03-29T22:23:04.955Z,80.5
2023-03-29T22:25:52.984Z,80.5
2023-03-29T22:28:40.836Z,80.6
2023-03-29T22:31:28.970Z,80.5
2023-03-29T22:34:16.746Z,80.9
2023-03-29T22:37:04.547Z,80.9
2023-03-29T22:39:52.264Z,80.8
2023-03-29T22:42:40.278Z,80.8
2023-03-29T22:45:28.189Z,81
2023-03-29T22:48:16.049Z,81.2
2023-03-29T22:51:04.275Z,81.2
2023-03-29T22:53:52.260Z,81.5
2023-03-29T22:56:40.049Z,81.5
2023-03-29T22:59:28.144Z,81.3
2023-03-29T23:02:15.951Z,81.5
2023-03-29T23:05:03.837Z,81.6
2023-03-29T23:07:51.630Z,81.9
2023-03-29T23:10:39.365Z,81.9
2023-03-29T23:13:27.039Z,81.8
2023-03-29T23:16:14.961Z,82.1
2023-03-29T23:19:02.705Z,82.1
2023-03-29T23:21:50.524Z,82.1
2023-03-29T23:24:38.218Z,82.1
2023-03-29T23:27:26.064Z,82.1
2023-03-29T23:30:13.791Z,82.1
